createdAt,value
2023-05-06T00:00:14.599Z,5.63
2023-05-06T00:02:45.939Z,5.57
2023-05-06T00:05:15.172Z,4.90
2023-05-06T00:07:43.602Z,5.13
2023-05-06T00:10:12.366Z,5.10
2023-05-06T00:12:41.005Z,5.70
2023-05-06T00:15:09.983Z,5.10
2023-05-06T00:17:38.705Z,5.70
2023-05-06T00:20:10.624Z,5.20
2023-05-06T00:22:39.235Z,5.37
2023-05-06T00:25:08.165Z,5.00
2023-05-06T00:27:36.762Z,5.13
2023-05-06T00:30:05.425Z,5.17
2023-05-06T00:32:35.018Z,5.17
2023-05-06T00:35:03.504Z,4.97
2023-05-06T00:37:33.164Z,5.05
2023-05-06T00:40:01.592Z,5.07
2023-05-06T00:42:30.187Z,5.00
2023-05-06T00:44:58.618Z,4.85
2023-05-06T00:47:27.210Z,4.77
2023-05-06T00:49:55.961Z,4.50
2023-05-06T00:52:24.579Z,4.77
2023-05-06T00:54:54.237Z,4.90
2023-05-06T00:57:23.537Z,4.30
2023-05-06T00:59:52.019Z,4.50
2023-05-06T01:02:20.829Z,4.87
2023-05-06T01:04:49.307Z,4.10
2023-05-06T01:07:29.701Z,4.03
2023-05-06T01:10:07.152Z,4.27
2023-05-06T01:12:45.166Z,4.07
2023-05-06T01:15:18.396Z,4.33
2023-05-06T01:17:50.047Z,3.77
2023-05-06T01:20:20.990Z,4.47
2023-05-06T01:22:50.903Z,4.47
2023-05-06T01:25:21.280Z,4.43
2023-05-06T01:27:49.829Z,4.00
2023-05-06T01:30:18.726Z,4.17
2023-05-06T01:32:57.498Z,4.20
2023-05-06T01:35:33.933Z,4.10
2023-05-06T01:38:10.893Z,4.07
2023-05-06T01:40:43.996Z,3.90
2023-05-06T01:43:13.631Z,3.60
2023-05-06T01:45:49.558Z,3.60
2023-05-06T01:48:18.228Z,3.60
2023-05-06T01:50:46.766Z,3.63
2023-05-06T01:53:15.271Z,3.80
2023-05-06T01:55:44.761Z,4.30
2023-05-06T01:58:13.349Z,3.53
2023-05-06T02:00:43.136Z,4.10
2023-05-06T02:03:11.774Z,3.57
2023-05-06T02:05:40.573Z,3.63
2023-05-06T02:08:09.414Z,3.33
2023-05-06T02:10:38.126Z,3.90
2023-05-06T02:13:11.514Z,4.17
2023-05-06T02:15:40.191Z,3.67
2023-05-06T02:18:12.418Z,3.90
2023-05-06T02:20:40.880Z,3.50
2023-05-06T02:23:16.383Z,3.70
2023-05-06T02:25:45.226Z,3.60
2023-05-06T02:28:15.465Z,3.80
2023-05-06T02:30:44.506Z,3.13
2023-05-06T02:33:12.936Z,3.67
2023-05-06T02:35:41.436Z,3.40
2023-05-06T02:38:10.567Z,3.33
2023-05-06T02:40:39.005Z,3.30
2023-05-06T02:43:07.452Z,3.33
2023-05-06T02:45:37.163Z,3.93
2023-05-06T02:48:06.044Z,3.67
2023-05-06T02:50:34.743Z,3.53
2023-05-06T02:53:03.368Z,3.23
2023-05-06T02:55:31.921Z,3.60
2023-05-06T02:58:00.292Z,3.67
2023-05-06T03:00:28.899Z,3.50
2023-05-06T03:02:58.377Z,3.67
2023-05-06T03:05:26.904Z,3.70
2023-05-06T03:07:55.381Z,3.80
2023-05-06T03:10:23.990Z,3.57
2023-05-06T03:12:53.359Z,3.40
2023-05-06T03:15:22.007Z,3.60
2023-05-06T03:17:50.535Z,3.70
2023-05-06T03:20:20.429Z,3.27
2023-05-06T03:22:53.564Z,3.40
2023-05-06T03:25:23.449Z,3.37
2023-05-06T03:27:52.827Z,3.37
2023-05-06T03:30:23.915Z,3.20
2023-05-06T03:32:57.100Z,3.67
2023-05-06T03:35:32.745Z,3.67
2023-05-06T03:38:03.070Z,3.27
2023-05-06T03:40:54.969Z,3.53
2023-05-06T03:43:24.009Z,3.50
2023-05-06T03:45:57.046Z,3.60
2023-05-06T03:48:25.827Z,3.23
2023-05-06T03:50:56.327Z,3.10
2023-05-06T03:53:25.092Z,3.33
2023-05-06T03:55:54.459Z,3.53
2023-05-06T03:58:23.537Z,3.70
2023-05-06T04:00:53.161Z,3.47
2023-05-06T04:03:21.702Z,3.30
2023-05-06T04:05:52.672Z,3.57
2023-05-06T04:08:26.486Z,3.30
2023-05-06T04:10:56.448Z,3.53
2023-05-06T04:13:30.557Z,3.30
2023-05-06T04:16:01.373Z,3.30
2023-05-06T04:18:36.091Z,3.40
2023-05-06T04:21:12.201Z,3.50
2023-05-06T04:23:44.317Z,3.23
2023-05-06T04:26:16.832Z,3.50
2023-05-06T04:28:47.007Z,3.20
2023-05-06T04:31:16.574Z,3.30
2023-05-06T04:33:47.914Z,3.23
2023-05-06T04:36:19.797Z,3.17
2023-05-06T04:38:59.339Z,3.50
2023-05-06T04:41:31.304Z,3.43
2023-05-06T04:44:00.847Z,3.30
2023-05-06T04:46:29.843Z,3.33
2023-05-06T04:48:59.252Z,3.45
2023-05-06T04:51:27.965Z,3.50
2023-05-06T04:53:56.882Z,3.53
2023-05-06T04:56:27.249Z,3.23
2023-05-06T04:58:55.858Z,3.13
2023-05-06T05:01:24.469Z,3.03
2023-05-06T05:03:53.034Z,3.57
2023-05-06T05:06:23.171Z,3.40
2023-05-06T05:08:51.886Z,3.70
2023-05-06T05:11:20.569Z,3.58
2023-05-06T05:13:50.491Z,3.10
2023-05-06T05:16:19.098Z,3.33
2023-05-06T05:18:48.434Z,3.28
2023-05-06T05:21:22.071Z,3.22
2023-05-06T05:23:50.620Z,3.20
2023-05-06T05:26:19.210Z,3.40
2023-05-06T05:28:50.116Z,3.15
2023-05-06T05:31:18.803Z,3.00
2023-05-06T05:33:47.922Z,3.25
2023-05-06T05:36:19.774Z,3.33
2023-05-06T05:38:50.917Z,3.00
2023-05-06T05:41:20.632Z,3.20
2023-05-06T05:43:50.669Z,2.40
2023-05-06T05:46:19.208Z,2.85
2023-05-06T05:48:49.552Z,2.50
2023-05-06T05:51:20.283Z,2.67
2023-05-06T05:53:48.918Z,2.70
2023-05-06T05:56:18.364Z,2.60
2023-05-06T05:58:48.487Z,2.70
2023-05-06T06:01:18.205Z,2.67
2023-05-06T06:03:47.769Z,2.60
2023-05-06T06:06:16.419Z,2.63
2023-05-06T06:08:45.184Z,2.53
2023-05-06T06:11:15.622Z,2.65
2023-05-06T06:13:44.529Z,2.50
2023-05-06T06:16:14.762Z,2.45
2023-05-06T06:18:44.639Z,2.70
2023-05-06T06:21:13.617Z,2.53
2023-05-06T06:23:42.816Z,2.90
2023-05-06T06:26:12.589Z,2.65
2023-05-06T06:28:41.998Z,2.97
2023-05-06T06:31:10.465Z,2.78
2023-05-06T06:33:39.132Z,2.88
2023-05-06T06:36:09.718Z,2.78
2023-05-06T06:38:38.248Z,2.95
2023-05-06T06:41:06.762Z,3.00
2023-05-06T06:43:35.297Z,2.90
2023-05-06T06:46:12.269Z,2.78
2023-05-06T06:48:40.740Z,3.05
2023-05-06T06:51:10.512Z,2.63
2023-05-06T06:53:39.051Z,2.88
2023-05-06T06:56:11.413Z,3.00
2023-05-06T06:58:40.256Z,2.60
2023-05-06T07:01:08.635Z,2.65
2023-05-06T07:03:37.168Z,2.72
2023-05-06T07:06:05.569Z,2.70
2023-05-06T07:08:35.077Z,2.63
2023-05-06T07:11:03.628Z,2.60
2023-05-06T07:13:32.214Z,2.20
2023-05-06T07:16:00.947Z,2.15
2023-05-06T07:18:29.627Z,2.28
2023-05-06T07:20:57.790Z,2.13
2023-05-06T07:23:26.367Z,2.40
2023-05-06T07:25:56.135Z,2.30
2023-05-06T07:28:24.692Z,2.15
2023-05-06T07:30:53.849Z,2.45
2023-05-06T07:33:22.406Z,2.58
2023-05-06T07:35:50.820Z,2.45
2023-05-06T07:38:19.337Z,2.50
2023-05-06T07:40:47.537Z,2.10
2023-05-06T07:43:17.354Z,2.20
2023-05-06T07:45:45.985Z,2.42
2023-05-06T07:48:14.581Z,2.35
2023-05-06T07:50:43.051Z,2.38
2023-05-06T07:53:11.841Z,2.30
2023-05-06T07:55:40.367Z,2.50
2023-05-06T07:58:09.043Z,2.15
2023-05-06T08:00:38.554Z,2.08
2023-05-06T08:03:07.166Z,2.58
2023-05-06T08:05:35.552Z,1.90
2023-05-06T08:08:04.131Z,1.95
2023-05-06T08:10:32.889Z,2.28
2023-05-06T08:13:01.779Z,2.00
2023-05-06T08:15:30.239Z,2.00
2023-05-06T08:18:07.032Z,2.13
2023-05-06T08:20:42.652Z,1.92
2023-05-06T08:23:11.110Z,1.90
2023-05-06T08:25:39.710Z,1.83
2023-05-06T08:28:08.274Z,1.90
2023-05-06T08:30:36.814Z,1.98
2023-05-06T08:33:06.830Z,1.67
2023-05-06T08:35:35.125Z,1.88
2023-05-06T08:38:03.616Z,2.20
2023-05-06T08:40:33.854Z,2.30
2023-05-06T08:43:05.059Z,1.92
2023-05-06T08:45:34.098Z,1.85
2023-05-06T08:48:02.537Z,1.90
2023-05-06T08:50:32.084Z,2.00
2023-05-06T08:53:01.954Z,2.00
2023-05-06T08:55:31.904Z,1.80
2023-05-06T08:58:01.499Z,1.90
2023-05-06T09:00:30.167Z,1.90
2023-05-06T09:02:58.345Z,1.80
2023-05-06T09:05:26.967Z,2.00
2023-05-06T09:07:56.450Z,2.08
2023-05-06T09:10:24.930Z,1.85
2023-05-06T09:12:56.573Z,1.55
2023-05-06T09:15:28.054Z,1.70
2023-05-06T09:17:57.325Z,1.98
2023-05-06T09:20:26.114Z,1.70
2023-05-06T09:22:54.498Z,2.03
2023-05-06T09:25:24.389Z,1.83
2023-05-06T09:28:04.119Z,1.70
2023-05-06T09:30:32.729Z,1.65
2023-05-06T09:33:02.921Z,1.95
2023-05-06T09:35:38.201Z,1.80
2023-05-06T09:38:07.337Z,1.70
2023-05-06T09:40:37.864Z,1.77
2023-05-06T09:43:06.330Z,1.90
2023-05-06T09:45:34.982Z,1.90
2023-05-06T09:48:03.866Z,2.20
2023-05-06T09:50:32.286Z,2.30
2023-05-06T09:53:03.705Z,1.92
2023-05-06T09:55:32.483Z,1.90
2023-05-06T09:58:02.619Z,1.80
2023-05-06T10:00:32.551Z,2.13
2023-05-06T10:03:01.997Z,1.90
2023-05-06T10:05:31.152Z,2.03
2023-05-06T10:08:00.115Z,2.08
2023-05-06T10:10:29.615Z,1.88
2023-05-06T10:12:58.403Z,1.83
2023-05-06T10:15:28.482Z,2.53
2023-05-06T10:17:57.321Z,1.95
2023-05-06T10:20:27.778Z,2.30
2023-05-06T10:23:04.769Z,1.80
2023-05-06T10:25:37.931Z,2.20
2023-05-06T10:28:09.206Z,1.70
2023-05-06T10:30:41.921Z,2.00
2023-05-06T10:33:13.100Z,1.90
2023-05-06T10:35:49.249Z,1.63
2023-05-06T10:38:23.435Z,2.15
2023-05-06T10:40:53.377Z,1.83
2023-05-06T10:43:26.299Z,1.92
2023-05-06T10:46:09.207Z,1.80
2023-05-06T10:48:38.743Z,1.98
2023-05-06T10:51:23.578Z,2.03
2023-05-06T10:54:06.758Z,1.80
2023-05-06T10:56:36.604Z,1.95
2023-05-06T10:59:08.797Z,2.20
2023-05-06T11:01:40.018Z,1.83
2023-05-06T11:04:09.979Z,2.20
2023-05-06T11:06:41.209Z,2.20
2023-05-06T11:09:17.856Z,2.08
2023-05-06T11:11:58.976Z,2.20
2023-05-06T11:14:29.284Z,1.75
2023-05-06T11:17:00.291Z,1.90
2023-05-06T11:19:30.227Z,1.88
2023-05-06T11:21:59.727Z,2.00
2023-05-06T11:24:29.719Z,2.38
2023-05-06T11:26:59.650Z,2.00
2023-05-06T11:29:28.198Z,2.22
2023-05-06T11:31:56.798Z,2.05
2023-05-06T11:34:28.339Z,1.90
2023-05-06T11:37:02.560Z,2.38
2023-05-06T11:39:34.875Z,2.08
2023-05-06T11:42:08.667Z,2.08
2023-05-06T11:44:38.904Z,2.22
2023-05-06T11:47:08.946Z,2.05
2023-05-06T11:49:40.092Z,2.10
2023-05-06T11:52:10.258Z,1.95
2023-05-06T11:54:41.280Z,2.13
2023-05-06T11:57:09.998Z,1.95
2023-05-06T11:59:39.573Z,2.10
2023-05-06T12:02:09.550Z,2.20
2023-05-06T12:04:43.305Z,2.22
2023-05-06T12:07:13.179Z,2.35
2023-05-06T12:09:44.047Z,3.95
2023-05-06T12:12:13.536Z,2.13
2023-05-06T12:14:42.140Z,2.22
2023-05-06T12:17:10.677Z,2.13
2023-05-06T12:19:41.845Z,2.58
2023-05-06T12:22:18.010Z,2.63
2023-05-06T12:24:46.338Z,2.22
2023-05-06T12:27:16.406Z,2.42
2023-05-06T12:29:56.794Z,2.20
2023-05-06T12:32:25.553Z,2.20
2023-05-06T12:34:56.053Z,2.47
2023-05-06T12:37:29.533Z,2.22
2023-05-06T12:39:59.410Z,2.28
2023-05-06T12:42:28.444Z,2.38
2023-05-06T12:44:57.105Z,2.72
2023-05-06T12:47:26.787Z,3.03
2023-05-06T12:49:58.343Z,2.70
2023-05-06T12:52:28.769Z,2.80
2023-05-06T12:54:57.415Z,2.88
2023-05-06T12:57:26.228Z,2.55
2023-05-06T12:59:56.354Z,2.95
2023-05-06T13:02:25.315Z,3.00
2023-05-06T13:04:54.034Z,3.00
2023-05-06T13:07:23.775Z,3.25
2023-05-06T13:09:52.378Z,2.80
2023-05-06T13:12:21.136Z,3.17
2023-05-06T13:14:49.604Z,3.40
2023-05-06T13:17:18.392Z,3.03
2023-05-06T13:19:48.058Z,3.05
2023-05-06T13:22:16.752Z,3.33
2023-05-06T13:24:46.790Z,3.58
2023-05-06T13:27:15.396Z,3.38
2023-05-06T13:29:43.983Z,3.35
2023-05-06T13:32:12.582Z,3.33
2023-05-06T13:34:41.037Z,3.70
2023-05-06T13:37:09.911Z,3.65
2023-05-06T13:39:39.045Z,3.22
2023-05-06T13:42:08.797Z,3.90
2023-05-06T13:44:37.254Z,3.58
2023-05-06T13:47:05.916Z,3.63
2023-05-06T13:49:34.511Z,3.50
2023-05-06T13:52:03.983Z,3.53
2023-05-06T13:54:33.228Z,3.70
2023-05-06T13:57:03.018Z,4.30
2023-05-06T13:59:32.446Z,3.90
2023-05-06T14:02:01.885Z,3.78
2023-05-06T14:04:30.596Z,4.03
2023-05-06T14:06:59.252Z,6.75
2023-05-06T14:09:27.979Z,4.20
2023-05-06T14:11:56.549Z,4.90
2023-05-06T14:14:25.060Z,4.05
2023-05-06T14:16:55.746Z,4.05
2023-05-06T14:19:24.556Z,4.20
2023-05-06T14:21:53.143Z,4.38
2023-05-06T14:24:21.584Z,5.40
2023-05-06T14:26:50.293Z,4.30
2023-05-06T14:29:18.723Z,4.55
2023-05-06T14:31:47.405Z,5.03
2023-05-06T14:34:17.042Z,4.50
2023-05-06T14:36:45.577Z,4.43
2023-05-06T14:39:14.215Z,5.10
2023-05-06T14:41:42.882Z,4.72
2023-05-06T14:44:11.286Z,4.47
2023-05-06T14:46:39.966Z,5.45
2023-05-06T14:49:08.442Z,4.80
2023-05-06T14:51:37.907Z,5.35
2023-05-06T14:54:06.478Z,5.20
2023-05-06T14:56:35.174Z,5.28
2023-05-06T14:59:04.221Z,4.75
2023-05-06T15:01:33.719Z,5.10
2023-05-06T15:04:02.305Z,5.50
2023-05-06T15:06:31.927Z,5.00
2023-05-06T15:09:02.417Z,5.30
2023-05-06T15:11:30.914Z,5.57
2023-05-06T15:13:59.314Z,5.53
2023-05-06T15:16:27.880Z,5.85
2023-05-06T15:18:56.461Z,6.38
2023-05-06T15:21:24.970Z,5.75
2023-05-06T15:23:53.419Z,5.78
2023-05-06T15:26:23.091Z,6.35
2023-05-06T15:28:51.494Z,5.65
2023-05-06T15:31:20.117Z,5.65
2023-05-06T15:33:48.707Z,6.38
2023-05-06T15:36:17.199Z,6.50
2023-05-06T15:39:00.367Z,6.25
2023-05-06T15:41:32.688Z,6.35
2023-05-06T15:44:02.905Z,6.55
2023-05-06T15:46:32.846Z,6.00
2023-05-06T15:49:31.913Z,6.90
2023-05-06T15:51:50.771Z,5.80
2023-05-06T15:54:19.579Z,6.22
2023-05-06T15:56:49.214Z,6.28
2023-05-06T15:59:17.639Z,6.50
2023-05-06T16:04:17.648Z,6.35
2023-05-06T16:06:46.194Z,6.28
2023-05-06T16:09:14.689Z,6.95
2023-05-06T16:11:43.104Z,6.00
2023-05-06T16:14:13.052Z,6.70
2023-05-06T16:16:41.482Z,6.38
2023-05-06T16:19:09.939Z,6.28
2023-05-06T16:21:38.412Z,6.35
2023-05-06T16:24:07.195Z,6.57
2023-05-06T16:26:35.527Z,7.03
2023-05-06T16:29:04.103Z,6.78
2023-05-06T16:31:33.993Z,5.95
2023-05-06T16:34:02.582Z,7.40
2023-05-06T16:36:31.590Z,6.05
2023-05-06T16:39:00.056Z,5.85
2023-05-06T16:41:28.449Z,7.20
2023-05-06T16:43:57.628Z,6.95
2023-05-06T16:46:26.242Z,6.60
2023-05-06T16:48:56.275Z,7.18
2023-05-06T16:51:25.053Z,7.30
2023-05-06T16:53:53.720Z,7.05
2023-05-06T16:56:22.708Z,6.80
2023-05-06T16:58:51.311Z,7.40
2023-05-06T17:01:19.803Z,7.78
2023-05-06T17:03:48.510Z,6.88
2023-05-06T17:06:18.282Z,7.05
2023-05-06T17:08:47.360Z,7.43
2023-05-06T17:11:15.790Z,6.80
2023-05-06T17:13:44.403Z,7.57
2023-05-06T17:16:12.811Z,7.20
2023-05-06T17:18:41.392Z,7.13
2023-05-06T17:21:09.887Z,6.90
2023-05-06T17:23:39.836Z,7.13
2023-05-06T17:26:10.219Z,7.35
2023-05-06T17:28:39.272Z,7.57
2023-05-06T17:31:07.738Z,7.18
2023-05-06T17:33:36.565Z,7.40
2023-05-06T17:36:05.042Z,6.72
2023-05-06T17:38:33.491Z,7.60
2023-05-06T17:41:03.077Z,7.90
2023-05-06T17:43:31.789Z,7.50
2023-05-06T17:46:00.327Z,7.45
2023-05-06T17:48:28.838Z,6.78
2023-05-06T17:51:01.962Z,6.95
2023-05-06T17:53:32.363Z,6.90
2023-05-06T17:56:01.495Z,7.25
2023-05-06T17:58:31.612Z,6.95
2023-05-06T18:01:00.084Z,6.75
2023-05-06T18:03:29.160Z,7.30
2023-05-06T18:05:58.574Z,7.23
2023-05-06T18:08:27.104Z,7.30
2023-05-06T18:10:55.693Z,7.05
2023-05-06T18:13:24.748Z,6.88
2023-05-06T18:15:57.071Z,6.90
2023-05-06T18:18:25.584Z,6.88
2023-05-06T18:20:56.410Z,6.70
2023-05-06T18:23:25.216Z,6.90
2023-05-06T18:25:54.085Z,6.60
2023-05-06T18:28:22.589Z,7.18
2023-05-06T18:30:51.059Z,7.68
2023-05-06T18:33:21.668Z,7.40
2023-05-06T18:35:50.439Z,7.53
2023-05-06T18:38:19.348Z,7.80
2023-05-06T18:40:48.087Z,7.65
2023-05-06T18:43:16.670Z,7.47
2023-05-06T18:45:45.177Z,8.18
2023-05-06T18:48:14.119Z,7.43
2023-05-06T18:50:44.358Z,7.85
2023-05-06T18:53:12.821Z,7.57
2023-05-06T18:55:41.282Z,7.50
2023-05-06T18:58:10.032Z,7.70
2023-05-06T19:00:38.571Z,6.93
2023-05-06T19:03:07.482Z,7.35
2023-05-06T19:05:37.931Z,7.40
2023-05-06T19:08:09.398Z,6.55
2023-05-06T19:10:37.842Z,7.28
2023-05-06T19:13:07.561Z,6.50
2023-05-06T19:15:36.400Z,7.13
2023-05-06T19:18:05.048Z,7.00
2023-05-06T19:20:34.349Z,6.47
2023-05-06T19:23:04.808Z,6.67
2023-05-06T19:25:36.899Z,6.28
2023-05-06T19:28:05.667Z,6.70
2023-05-06T19:30:35.432Z,6.80
2023-05-06T19:33:04.771Z,6.93
2023-05-06T19:35:33.363Z,6.30
2023-05-06T19:38:01.939Z,6.65
2023-05-06T19:40:31.108Z,6.88
2023-05-06T19:43:03.918Z,7.32
2023-05-06T19:45:32.556Z,6.40
2023-05-06T19:48:01.345Z,6.73
2023-05-06T19:50:30.178Z,6.18
2023-05-06T19:52:58.585Z,6.43
2023-05-06T19:55:27.203Z,6.20
2023-05-06T19:57:57.913Z,6.77
2023-05-06T20:00:28.192Z,5.65
2023-05-06T20:02:58.748Z,6.63
2023-05-06T20:05:29.637Z,5.97
2023-05-06T20:07:59.686Z,6.03
2023-05-06T20:10:28.400Z,6.47
2023-05-06T20:12:58.049Z,6.20
2023-05-06T20:15:28.480Z,5.57
2023-05-06T20:17:57.184Z,6.00
2023-05-06T20:20:34.096Z,5.83
2023-05-06T20:23:02.904Z,5.70
2023-05-06T20:25:31.516Z,6.00
2023-05-06T20:28:00.387Z,6.15
2023-05-06T20:30:30.087Z,6.03
2023-05-06T20:32:58.818Z,5.50
2023-05-06T20:35:27.554Z,5.70
2023-05-06T20:37:56.432Z,5.70
2023-05-06T20:40:24.830Z,6.03
2023-05-06T20:42:53.324Z,5.57
2023-05-06T20:45:21.950Z,5.88
2023-05-06T20:47:51.980Z,5.50
2023-05-06T20:50:20.631Z,5.80
2023-05-06T20:52:49.259Z,5.82
2023-05-06T20:55:20.676Z,5.38
2023-05-06T20:57:49.268Z,5.50
2023-05-06T21:00:17.929Z,5.73
2023-05-06T21:02:46.636Z,5.90
2023-05-06T21:05:16.406Z,5.67
2023-05-06T21:07:44.957Z,6.13
2023-05-06T21:10:14.603Z,5.93
2023-05-06T21:12:48.525Z,5.82
2023-05-06T21:15:17.238Z,5.60
2023-05-06T21:17:45.822Z,5.53
2023-05-06T21:20:16.715Z,6.28
2023-05-06T21:22:45.246Z,4.97
2023-05-06T21:25:14.300Z,5.77
2023-05-06T21:27:42.786Z,5.30
2023-05-06T21:30:11.675Z,5.87
2023-05-06T21:32:40.174Z,5.60
2023-05-06T21:35:09.217Z,5.80
2023-05-06T21:37:39.224Z,6.05
2023-05-06T21:40:08.397Z,5.70
2023-05-06T21:42:36.861Z,6.15
2023-05-06T21:45:05.524Z,6.00
2023-05-06T21:47:33.954Z,5.15
2023-05-06T21:50:02.542Z,5.83
2023-05-06T21:52:30.969Z,5.73
2023-05-06T21:55:00.578Z,5.60
2023-05-06T21:57:29.024Z,5.47
2023-05-06T21:59:57.563Z,5.60
2023-05-06T22:02:26.104Z,5.75
2023-05-06T22:04:54.662Z,5.93
2023-05-06T22:07:23.055Z,5.90
2023-05-06T22:09:51.600Z,5.47
2023-05-06T22:12:21.855Z,5.13
2023-05-06T22:14:50.269Z,5.65
2023-05-06T22:17:18.674Z,5.03
2023-05-06T22:19:47.307Z,4.72
2023-05-06T22:22:15.960Z,5.30
2023-05-06T22:24:44.451Z,4.97
2023-05-06T22:27:12.828Z,4.77
2023-05-06T22:29:42.387Z,4.90
2023-05-06T22:32:10.914Z,5.30
2023-05-06T22:34:39.351Z,5.03
2023-05-06T22:37:10.465Z,5.23
2023-05-06T22:39:39.183Z,5.63
2023-05-06T22:42:07.677Z,5.20
2023-05-06T22:44:36.174Z,4.75
2023-05-06T22:47:05.714Z,5.40
2023-05-06T22:49:34.276Z,5.00
2023-05-06T22:52:02.725Z,5.40
2023-05-06T22:54:31.143Z,4.70
2023-05-06T22:56:59.579Z,4.80
2023-05-06T22:59:28.108Z,4.78
2023-05-06T23:01:56.778Z,3.92
2023-05-06T23:04:26.541Z,4.32
2023-05-06T23:06:54.991Z,4.32
2023-05-06T23:09:23.476Z,4.70
2023-05-06T23:11:51.910Z,4.50
2023-05-06T23:14:20.479Z,4.40
2023-05-06T23:16:48.993Z,4.40
2023-05-06T23:19:17.591Z,4.20
2023-05-06T23:21:47.005Z,3.90
2023-05-06T23:24:15.514Z,4.13
2023-05-06T23:26:43.943Z,4.37
2023-05-06T23:29:12.510Z,4.18
2023-05-06T23:31:41.001Z,4.50
2023-05-06T23:34:09.432Z,4.15
2023-05-06T23:36:37.814Z,4.10
2023-05-06T23:39:07.432Z,4.40
2023-05-06T23:41:36.118Z,4.20
2023-05-06T23:44:04.584Z,3.87
2023-05-06T23:46:33.182Z,4.23
2023-05-06T23:49:01.758Z,3.93
2023-05-06T23:51:30.175Z,3.90
2023-05-06T23:53:58.696Z,4.47
2023-05-06T23:56:28.613Z,4.00
2023-05-06T23:58:57.108Z,4.20
